sensor_id;sensor_type;location;lat;lon;timestamp;temperature;humidity
22633;DHT22;11483;55.828;37.488;2022-08-21T00:01:50;18.50;94.60
22633;DHT22;11483;55.828;37.488;2022-08-21T00:04:16;18.50;94.60
22633;DHT22;11483;55.828;37.488;2022-08-21T00:06:42;18.40;94.70
22633;DHT22;11483;55.828;37.488;2022-08-21T00:09:08;18.40;94.80
22633;DHT22;11483;55.828;37.488;2022-08-21T00:11:35;18.40;94.70
22633;DHT22;11483;55.828;37.488;2022-08-21T00:14:03;18.40;94.80
22633;DHT22;11483;55.828;37.488;2022-08-21T00:16:29;18.30;95.00
22633;DHT22;11483;55.828;37.488;2022-08-21T00:18:55;18.30;95.00
22633;DHT22;11483;55.828;37.488;2022-08-21T00:21:21;18.20;95.10
22633;DHT22;11483;55.828;37.488;2022-08-21T00:23:48;18.10;95.30
22633;DHT22;11483;55.828;37.488;2022-08-21T00:26:13;18.10;95.40
22633;DHT22;11483;55.828;37.488;2022-08-21T00:28:40;18.10;95.40
22633;DHT22;11483;55.828;37.488;2022-08-21T00:31:05;18.10;95.50
22633;DHT22;11483;55.828;37.488;2022-08-21T00:33:31;18.10;95.60
22633;DHT22;11483;55.828;37.488;2022-08-21T00:35:57;18.20;95.70
22633;DHT22;11483;55.828;37.488;2022-08-21T00:38:23;18.20;95.60
22633;DHT22;11483;55.828;37.488;2022-08-21T00:40:53;18.20;95.60
22633;DHT22;11483;55.828;37.488;2022-08-21T00:43:23;18.30;95.60
22633;DHT22;11483;55.828;37.488;2022-08-21T00:45:50;18.30;95.60
22633;DHT22;11483;55.828;37.488;2022-08-21T00:48:16;18.20;95.50
22633;DHT22;11483;55.828;37.488;2022-08-21T00:50:48;18.20;95.50
22633;DHT22;11483;55.828;37.488;2022-08-21T00:53:16;18.20;95.50
22633;DHT22;11483;55.828;37.488;2022-08-21T00:55:43;18.20;95.60
22633;DHT22;11483;55.828;37.488;2022-08-21T00:58:12;18.20;95.60
22633;DHT22;11483;55.828;37.488;2022-08-21T01:00:40;18.20;95.50
22633;DHT22;11483;55.828;37.488;2022-08-21T01:03:12;18.20;95.50
22633;DHT22;11483;55.828;37.488;2022-08-21T01:05:39;18.20;95.50
22633;DHT22;11483;55.828;37.488;2022-08-21T01:08:06;18.10;95.40
22633;DHT22;11483;55.828;37.488;2022-08-21T01:10:33;18.10;95.50
22633;DHT22;11483;55.828;37.488;2022-08-21T01:13:01;18.10;95.40
22633;DHT22;11483;55.828;37.488;2022-08-21T01:15:32;18.10;95.40
22633;DHT22;11483;55.828;37.488;2022-08-21T01:18:00;18.10;95.40
22633;DHT22;11483;55.828;37.488;2022-08-21T01:20:27;18.10;95.40
22633;DHT22;11483;55.828;37.488;2022-08-21T01:22:53;18.10;95.50
22633;DHT22;11483;55.828;37.488;2022-08-21T01:25:19;18.00;95.50
22633;DHT22;11483;55.828;37.488;2022-08-21T01:27:48;18.00;95.40
22633;DHT22;11483;55.828;37.488;2022-08-21T01:30:22;18.00;95.50
22633;DHT22;11483;55.828;37.488;2022-08-21T01:32:49;18.00;95.50
22633;DHT22;11483;55.828;37.488;2022-08-21T01:35:18;18.00;95.50
22633;DHT22;11483;55.828;37.488;2022-08-21T01:37:45;18.00;95.50
22633;DHT22;11483;55.828;37.488;2022-08-21T01:40:13;18.00;95.50
22633;DHT22;11483;55.828;37.488;2022-08-21T01:42:46;18.00;95.50
22633;DHT22;11483;55.828;37.488;2022-08-21T01:45:14;17.90;95.60
22633;DHT22;11483;55.828;37.488;2022-08-21T01:47:41;17.90;95.60
22633;DHT22;11483;55.828;37.488;2022-08-21T01:50:10;17.90;95.60
22633;DHT22;11483;55.828;37.488;2022-08-21T01:52:36;17.90;95.70
22633;DHT22;11483;55.828;37.488;2022-08-21T01:55:05;17.90;95.70
22633;DHT22;11483;55.828;37.488;2022-08-21T01:57:31;17.90;95.60
22633;DHT22;11483;55.828;37.488;2022-08-21T01:59:58;17.90;95.70
22633;DHT22;11483;55.828;37.488;2022-08-21T02:02:24;17.80;95.70
22633;DHT22;11483;55.828;37.488;2022-08-21T02:04:50;17.80;95.80
22633;DHT22;11483;55.828;37.488;2022-08-21T02:07:16;17.80;95.80
22633;DHT22;11483;55.828;37.488;2022-08-21T02:09:42;17.80;95.70
22633;DHT22;11483;55.828;37.488;2022-08-21T02:12:10;17.80;95.70
22633;DHT22;11483;55.828;37.488;2022-08-21T02:14:36;17.80;95.70
22633;DHT22;11483;55.828;37.488;2022-08-21T02:17:02;17.80;95.80
22633;DHT22;11483;55.828;37.488;2022-08-21T02:19:28;17.80;95.80
22633;DHT22;11483;55.828;37.488;2022-08-21T02:21:54;17.70;95.90
22633;DHT22;11483;55.828;37.488;2022-08-21T02:24:20;17.70;95.80
22633;DHT22;11483;55.828;37.488;2022-08-21T02:26:46;17.80;95.90
22633;DHT22;11483;55.828;37.488;2022-08-21T02:29:12;17.70;95.80
22633;DHT22;11483;55.828;37.488;2022-08-21T02:31:38;17.80;95.80
22633;DHT22;11483;55.828;37.488;2022-08-21T02:34:04;17.80;95.70
22633;DHT22;11483;55.828;37.488;2022-08-21T02:36:30;17.80;95.80
22633;DHT22;11483;55.828;37.488;2022-08-21T02:38:56;17.80;95.70
22633;DHT22;11483;55.828;37.488;2022-08-21T02:41:22;17.90;95.70
22633;DHT22;11483;55.828;37.488;2022-08-21T02:43:48;17.90;95.60
22633;DHT22;11483;55.828;37.488;2022-08-21T02:46:18;17.90;95.60
22633;DHT22;11483;55.828;37.488;2022-08-21T02:48:44;17.90;95.70
22633;DHT22;11483;55.828;37.488;2022-08-21T02:51:15;17.90;95.60
22633;DHT22;11483;55.828;37.488;2022-08-21T02:53:43;17.90;95.60
22633;DHT22;11483;55.828;37.488;2022-08-21T02:56:11;17.90;95.40
22633;DHT22;11483;55.828;37.488;2022-08-21T02:58:41;18.00;95.50
22633;DHT22;11483;55.828;37.488;2022-08-21T03:01:07;18.00;95.40
22633;DHT22;11483;55.828;37.488;2022-08-21T03:03:38;18.10;95.30
22633;DHT22;11483;55.828;37.488;2022-08-21T03:06:05;18.10;95.30
22633;DHT22;11483;55.828;37.488;2022-08-21T03:08:31;18.10;95.20
22633;DHT22;11483;55.828;37.488;2022-08-21T03:10:57;18.10;95.10
22633;DHT22;11483;55.828;37.488;2022-08-21T03:13:25;18.10;95.20
22633;DHT22;11483;55.828;37.488;2022-08-21T03:15:51;18.20;95.10
22633;DHT22;11483;55.828;37.488;2022-08-21T03:18:17;18.20;95.10
22633;DHT22;11483;55.828;37.488;2022-08-21T03:20:43;18.30;95.00
22633;DHT22;11483;55.828;37.488;2022-08-21T03:23:10;18.30;95.00
22633;DHT22;11483;55.828;37.488;2022-08-21T03:25:38;18.30;94.80
22633;DHT22;11483;55.828;37.488;2022-08-21T03:28:06;18.40;94.80
22633;DHT22;11483;55.828;37.488;2022-08-21T03:30:32;18.50;94.80
22633;DHT22;11483;55.828;37.488;2022-08-21T03:32:59;18.50;94.80
22633;DHT22;11483;55.828;37.488;2022-08-21T03:35:26;18.60;94.60
22633;DHT22;11483;55.828;37.488;2022-08-21T03:37:53;18.60;94.50
22633;DHT22;11483;55.828;37.488;2022-08-21T03:40:20;18.70;94.50
22633;DHT22;11483;55.828;37.488;2022-08-21T03:42:47;18.80;94.20
22633;DHT22;11483;55.828;37.488;2022-08-21T03:45:14;18.80;94.20
22633;DHT22;11483;55.828;37.488;2022-08-21T03:48:01;18.80;94.20
22633;DHT22;11483;55.828;37.488;2022-08-21T03:50:30;18.80;94.00
22633;DHT22;11483;55.828;37.488;2022-08-21T03:52:57;18.90;93.90
22633;DHT22;11483;55.828;37.488;2022-08-21T03:55:25;18.90;94.00
22633;DHT22;11483;55.828;37.488;2022-08-21T03:57:51;19.00;94.00
22633;DHT22;11483;55.828;37.488;2022-08-21T04:00:18;19.00;93.90
22633;DHT22;11483;55.828;37.488;2022-08-21T04:02:45;19.10;93.80
22633;DHT22;11483;55.828;37.488;2022-08-21T04:05:12;19.20;93.40
22633;DHT22;11483;55.828;37.488;2022-08-21T04:07:38;19.30;93.40
22633;DHT22;11483;55.828;37.488;2022-08-21T04:10:05;19.30;93.50
22633;DHT22;11483;55.828;37.488;2022-08-21T04:12:32;19.30;93.20
22633;DHT22;11483;55.828;37.488;2022-08-21T04:14:58;19.40;93.30
22633;DHT22;11483;55.828;37.488;2022-08-21T04:17:24;19.50;93.00
22633;DHT22;11483;55.828;37.488;2022-08-21T04:19:50;19.60;92.90
22633;DHT22;11483;55.828;37.488;2022-08-21T04:22:16;19.70;92.80
22633;DHT22;11483;55.828;37.488;2022-08-21T04:24:42;19.70;92.80
22633;DHT22;11483;55.828;37.488;2022-08-21T04:27:08;19.80;92.60
22633;DHT22;11483;55.828;37.488;2022-08-21T04:29:34;19.70;92.50
22633;DHT22;11483;55.828;37.488;2022-08-21T04:32:00;19.80;92.40
22633;DHT22;11483;55.828;37.488;2022-08-21T04:34:26;19.80;92.30
22633;DHT22;11483;55.828;37.488;2022-08-21T04:36:51;20.00;92.20
22633;DHT22;11483;55.828;37.488;2022-08-21T04:39:17;20.10;92.10
22633;DHT22;11483;55.828;37.488;2022-08-21T04:41:43;20.10;91.90
22633;DHT22;11483;55.828;37.488;2022-08-21T04:44:09;20.20;91.90
22633;DHT22;11483;55.828;37.488;2022-08-21T04:46:35;20.20;91.70
22633;DHT22;11483;55.828;37.488;2022-08-21T04:49:01;20.20;91.60
22633;DHT22;11483;55.828;37.488;2022-08-21T04:51:33;20.20;91.70
22633;DHT22;11483;55.828;37.488;2022-08-21T04:54:20;20.30;91.60
22633;DHT22;11483;55.828;37.488;2022-08-21T04:57:00;20.30;91.70
22633;DHT22;11483;55.828;37.488;2022-08-21T04:59:35;20.40;91.40
22633;DHT22;11483;55.828;37.488;2022-08-21T05:02:02;20.50;91.30
22633;DHT22;11483;55.828;37.488;2022-08-21T05:04:30;20.50;90.90
22633;DHT22;11483;55.828;37.488;2022-08-21T05:07:02;20.50;90.80
22633;DHT22;11483;55.828;37.488;2022-08-21T05:09:29;20.50;90.80
22633;DHT22;11483;55.828;37.488;2022-08-21T05:11:56;20.60;90.60
22633;DHT22;11483;55.828;37.488;2022-08-21T05:14:22;20.50;90.60
22633;DHT22;11483;55.828;37.488;2022-08-21T05:16:47;20.60;90.60
22633;DHT22;11483;55.828;37.488;2022-08-21T05:19:14;20.70;90.80
22633;DHT22;11483;55.828;37.488;2022-08-21T05:21:41;20.70;90.40
22633;DHT22;11483;55.828;37.488;2022-08-21T05:24:08;20.60;90.40
22633;DHT22;11483;55.828;37.488;2022-08-21T05:26:34;20.70;90.30
22633;DHT22;11483;55.828;37.488;2022-08-21T05:29:03;20.70;90.10
22633;DHT22;11483;55.828;37.488;2022-08-21T05:31:28;20.80;90.20
22633;DHT22;11483;55.828;37.488;2022-08-21T05:33:54;20.90;89.80
22633;DHT22;11483;55.828;37.488;2022-08-21T05:36:20;20.90;89.90
22633;DHT22;11483;55.828;37.488;2022-08-21T05:38:46;21.00;89.60
22633;DHT22;11483;55.828;37.488;2022-08-21T05:41:12;21.10;89.10
22633;DHT22;11483;55.828;37.488;2022-08-21T05:43:38;21.10;88.90
22633;DHT22;11483;55.828;37.488;2022-08-21T05:46:06;21.20;88.60
22633;DHT22;11483;55.828;37.488;2022-08-21T05:48:32;21.20;88.00
22633;DHT22;11483;55.828;37.488;2022-08-21T05:51:11;21.20;87.80
22633;DHT22;11483;55.828;37.488;2022-08-21T05:53:37;21.30;88.10
22633;DHT22;11483;55.828;37.488;2022-08-21T05:56:04;21.30;88.20
22633;DHT22;11483;55.828;37.488;2022-08-21T05:58:32;21.40;87.50
22633;DHT22;11483;55.828;37.488;2022-08-21T06:00:59;21.50;87.50
22633;DHT22;11483;55.828;37.488;2022-08-21T06:03:28;21.60;87.10
22633;DHT22;11483;55.828;37.488;2022-08-21T06:05:58;21.70;86.90
22633;DHT22;11483;55.828;37.488;2022-08-21T06:08:24;21.80;87.10
22633;DHT22;11483;55.828;37.488;2022-08-21T06:10:52;21.80;86.40
22633;DHT22;11483;55.828;37.488;2022-08-21T06:13:19;21.90;85.90
22633;DHT22;11483;55.828;37.488;2022-08-21T06:15:48;22.00;85.00
22633;DHT22;11483;55.828;37.488;2022-08-21T06:18:15;22.20;84.20
22633;DHT22;11483;55.828;37.488;2022-08-21T06:20:41;22.10;83.40
22633;DHT22;11483;55.828;37.488;2022-08-21T06:23:16;22.10;83.10
22633;DHT22;11483;55.828;37.488;2022-08-21T06:25:42;22.20;82.80
22633;DHT22;11483;55.828;37.488;2022-08-21T06:28:11;22.40;82.70
22633;DHT22;11483;55.828;37.488;2022-08-21T06:30:39;22.50;82.30
22633;DHT22;11483;55.828;37.488;2022-08-21T06:33:05;22.40;81.60
22633;DHT22;11483;55.828;37.488;2022-08-21T06:35:32;22.50;81.70
22633;DHT22;11483;55.828;37.488;2022-08-21T06:37:58;22.60;80.50
22633;DHT22;11483;55.828;37.488;2022-08-21T06:40:26;22.80;80.10
22633;DHT22;11483;55.828;37.488;2022-08-21T06:42:52;22.90;80.00
22633;DHT22;11483;55.828;37.488;2022-08-21T06:45:18;22.80;79.20
22633;DHT22;11483;55.828;37.488;2022-08-21T06:47:44;23.00;79.30
22633;DHT22;11483;55.828;37.488;2022-08-21T06:50:10;23.10;77.80
22633;DHT22;11483;55.828;37.488;2022-08-21T06:52:37;23.10;78.80
22633;DHT22;11483;55.828;37.488;2022-08-21T06:55:06;23.30;77.90
22633;DHT22;11483;55.828;37.488;2022-08-21T06:57:32;23.40;75.70
22633;DHT22;11483;55.828;37.488;2022-08-21T07:00:01;23.40;76.00
22633;DHT22;11483;55.828;37.488;2022-08-21T07:02:30;23.50;75.00
22633;DHT22;11483;55.828;37.488;2022-08-21T07:04:57;23.60;76.20
22633;DHT22;11483;55.828;37.488;2022-08-21T07:07:24;23.70;75.00
22633;DHT22;11483;55.828;37.488;2022-08-21T07:09:53;23.80;73.00
22633;DHT22;11483;55.828;37.488;2022-08-21T07:12:19;23.90;72.90
22633;DHT22;11483;55.828;37.488;2022-08-21T07:14:45;24.10;73.30
22633;DHT22;11483;55.828;37.488;2022-08-21T07:17:11;24.30;71.70
22633;DHT22;11483;55.828;37.488;2022-08-21T07:19:37;24.60;70.90
22633;DHT22;11483;55.828;37.488;2022-08-21T07:22:02;24.60;70.90
22633;DHT22;11483;55.828;37.488;2022-08-21T07:24:29;24.60;70.70
22633;DHT22;11483;55.828;37.488;2022-08-21T07:26:55;24.90;69.40
22633;DHT22;11483;55.828;37.488;2022-08-21T07:29:21;25.00;69.90
22633;DHT22;11483;55.828;37.488;2022-08-21T07:31:47;25.10;67.90
22633;DHT22;11483;55.828;37.488;2022-08-21T07:34:13;25.00;67.20
22633;DHT22;11483;55.828;37.488;2022-08-21T07:36:39;25.00;68.30
22633;DHT22;11483;55.828;37.488;2022-08-21T07:39:05;25.00;66.60
22633;DHT22;11483;55.828;37.488;2022-08-21T07:41:31;25.00;66.30
22633;DHT22;11483;55.828;37.488;2022-08-21T07:43:58;25.10;66.20
22633;DHT22;11483;55.828;37.488;2022-08-21T07:46:25;25.40;65.70
22633;DHT22;11483;55.828;37.488;2022-08-21T07:48:51;25.60;65.30
22633;DHT22;11483;55.828;37.488;2022-08-21T07:51:19;25.60;65.10
22633;DHT22;11483;55.828;37.488;2022-08-21T07:53:50;25.70;64.90
22633;DHT22;11483;55.828;37.488;2022-08-21T07:56:17;25.70;63.60
22633;DHT22;11483;55.828;37.488;2022-08-21T07:58:43;25.60;63.00
22633;DHT22;11483;55.828;37.488;2022-08-21T08:01:09;25.60;62.20
22633;DHT22;11483;55.828;37.488;2022-08-21T08:03:35;25.50;62.00
22633;DHT22;11483;55.828;37.488;2022-08-21T08:06:02;25.60;62.20
22633;DHT22;11483;55.828;37.488;2022-08-21T08:08:30;25.70;62.40
22633;DHT22;11483;55.828;37.488;2022-08-21T08:10:58;25.80;62.10
22633;DHT22;11483;55.828;37.488;2022-08-21T08:13:25;26.00;62.00
22633;DHT22;11483;55.828;37.488;2022-08-21T08:15:51;26.20;61.00
22633;DHT22;11483;55.828;37.488;2022-08-21T08:18:17;26.60;61.60
22633;DHT22;11483;55.828;37.488;2022-08-21T08:20:42;26.70;60.20
22633;DHT22;11483;55.828;37.488;2022-08-21T08:23:13;26.90;59.70
22633;DHT22;11483;55.828;37.488;2022-08-21T08:25:39;27.20;58.60
22633;DHT22;11483;55.828;37.488;2022-08-21T08:28:06;27.30;58.20
22633;DHT22;11483;55.828;37.488;2022-08-21T08:30:32;27.60;57.50
22633;DHT22;11483;55.828;37.488;2022-08-21T08:32:57;28.00;56.70
22633;DHT22;11483;55.828;37.488;2022-08-21T08:35:25;29.10;55.60
22633;DHT22;11483;55.828;37.488;2022-08-21T08:37:51;30.30;53.80
22633;DHT22;11483;55.828;37.488;2022-08-21T08:42:54;30.70;51.30
22633;DHT22;11483;55.828;37.488;2022-08-21T08:45:22;30.80;50.80
22633;DHT22;11483;55.828;37.488;2022-08-21T08:47:55;30.60;50.50
22633;DHT22;11483;55.828;37.488;2022-08-21T08:50:30;30.50;50.30
22633;DHT22;11483;55.828;37.488;2022-08-21T08:53:12;30.70;50.40
22633;DHT22;11483;55.828;37.488;2022-08-21T08:55:43;32.00;49.20
22633;DHT22;11483;55.828;37.488;2022-08-21T08:58:19;33.10;48.40
22633;DHT22;11483;55.828;37.488;2022-08-21T09:00:47;34.10;47.30
22633;DHT22;11483;55.828;37.488;2022-08-21T09:03:15;34.50;45.80
22633;DHT22;11483;55.828;37.488;2022-08-21T09:05:43;35.10;44.70
22633;DHT22;11483;55.828;37.488;2022-08-21T09:09:31;35.50;44.70
22633;DHT22;11483;55.828;37.488;2022-08-21T09:11:54;35.30;44.30
22633;DHT22;11483;55.828;37.488;2022-08-21T09:14:45;34.30;44.20
22633;DHT22;11483;55.828;37.488;2022-08-21T09:17:26;33.40;44.70
22633;DHT22;11483;55.828;37.488;2022-08-21T09:20:21;32.80;45.00
22633;DHT22;11483;55.828;37.488;2022-08-21T09:25:32;32.00;43.50
22633;DHT22;11483;55.828;37.488;2022-08-21T09:27:58;31.60;43.30
22633;DHT22;11483;55.828;37.488;2022-08-21T09:30:27;31.50;43.50
22633;DHT22;11483;55.828;37.488;2022-08-21T09:32:54;31.50;43.90
22633;DHT22;11483;55.828;37.488;2022-08-21T09:35:20;31.10;44.20
22633;DHT22;11483;55.828;37.488;2022-08-21T09:37:57;30.70;44.50
22633;DHT22;11483;55.828;37.488;2022-08-21T09:42:59;29.70;45.80
22633;DHT22;11483;55.828;37.488;2022-08-21T09:45:25;29.10;46.10
22633;DHT22;11483;55.828;37.488;2022-08-21T09:47:51;29.40;46.80
22633;DHT22;11483;55.828;37.488;2022-08-21T09:50:24;29.80;46.40
22633;DHT22;11483;55.828;37.488;2022-08-21T09:52:56;30.20;46.10
22633;DHT22;11483;55.828;37.488;2022-08-21T09:55:38;30.60;45.60
22633;DHT22;11483;55.828;37.488;2022-08-21T09:58:31;30.80;45.00
22633;DHT22;11483;55.828;37.488;2022-08-21T10:00:59;30.20;45.00
22633;DHT22;11483;55.828;37.488;2022-08-21T10:03:26;30.10;45.30
22633;DHT22;11483;55.828;37.488;2022-08-21T10:06:04;29.50;44.60
22633;DHT22;11483;55.828;37.488;2022-08-21T10:08:33;29.10;44.60
22633;DHT22;11483;55.828;37.488;2022-08-21T10:11:09;29.10;45.20
22633;DHT22;11483;55.828;37.488;2022-08-21T10:22:27;28.20;45.60
22633;DHT22;11483;55.828;37.488;2022-08-21T10:25:05;28.40;46.00
22633;DHT22;11483;55.828;37.488;2022-08-21T10:38:43;28.20;46.40
22633;DHT22;11483;55.828;37.488;2022-08-21T10:47:30;28.00;47.10
22633;DHT22;11483;55.828;37.488;2022-08-21T10:55:21;27.60;47.10
22633;DHT22;11483;55.828;37.488;2022-08-21T10:58:14;27.60;47.60
22633;DHT22;11483;55.828;37.488;2022-08-21T11:00:49;27.70;47.80
22633;DHT22;11483;55.828;37.488;2022-08-21T11:03:47;27.70;48.20
22633;DHT22;11483;55.828;37.488;2022-08-21T11:06:25;27.60;48.00
22633;DHT22;11483;55.828;37.488;2022-08-21T11:09:16;27.50;48.20
22633;DHT22;11483;55.828;37.488;2022-08-21T11:12:07;27.40;48.40
22633;DHT22;11483;55.828;37.488;2022-08-21T11:14:49;27.20;48.20
22633;DHT22;11483;55.828;37.488;2022-08-21T11:17:27;27.10;48.80
22633;DHT22;11483;55.828;37.488;2022-08-21T11:20:08;27.20;48.50
22633;DHT22;11483;55.828;37.488;2022-08-21T11:23:01;27.40;48.10
22633;DHT22;11483;55.828;37.488;2022-08-21T11:25:36;27.40;47.10
22633;DHT22;11483;55.828;37.488;2022-08-21T11:28:08;27.40;46.40
22633;DHT22;11483;55.828;37.488;2022-08-21T11:34:17;27.10;46.50
22633;DHT22;11483;55.828;37.488;2022-08-21T11:37:01;26.90;46.60
22633;DHT22;11483;55.828;37.488;2022-08-21T11:39:39;26.80;47.20
22633;DHT22;11483;55.828;37.488;2022-08-21T11:45:14;27.00;47.80
22633;DHT22;11483;55.828;37.488;2022-08-21T11:50:30;27.20;47.70
22633;DHT22;11483;55.828;37.488;2022-08-21T11:56:12;27.00;48.40
22633;DHT22;11483;55.828;37.488;2022-08-21T11:58:48;27.10;48.80
22633;DHT22;11483;55.828;37.488;2022-08-21T12:01:31;27.10;49.80
22633;DHT22;11483;55.828;37.488;2022-08-21T12:04:06;26.80;49.20
22633;DHT22;11483;55.828;37.488;2022-08-21T12:06:35;26.70;49.50
22633;DHT22;11483;55.828;37.488;2022-08-21T12:09:11;26.50;49.40
22633;DHT22;11483;55.828;37.488;2022-08-21T12:17:53;26.60;50.10
22633;DHT22;11483;55.828;37.488;2022-08-21T12:20:35;26.60;50.10
22633;DHT22;11483;55.828;37.488;2022-08-21T12:25:39;26.70;50.50
22633;DHT22;11483;55.828;37.488;2022-08-21T12:28:11;26.70;50.00
22633;DHT22;11483;55.828;37.488;2022-08-21T12:30:41;26.60;49.70
22633;DHT22;11483;55.828;37.488;2022-08-21T12:33:24;26.50;49.70
22633;DHT22;11483;55.828;37.488;2022-08-21T12:36:00;26.50;50.20
22633;DHT22;11483;55.828;37.488;2022-08-21T12:38:32;26.60;50.10
22633;DHT22;11483;55.828;37.488;2022-08-21T12:41:51;26.60;50.10
22633;DHT22;11483;55.828;37.488;2022-08-21T12:44:00;26.70;50.30
22633;DHT22;11483;55.828;37.488;2022-08-21T12:46:39;26.80;50.30
22633;DHT22;11483;55.828;37.488;2022-08-21T12:49:23;26.90;50.40
22633;DHT22;11483;55.828;37.488;2022-08-21T12:54:48;27.00;50.10
22633;DHT22;11483;55.828;37.488;2022-08-21T12:57:22;27.10;50.30
22633;DHT22;11483;55.828;37.488;2022-08-21T12:59:54;27.20;50.00
22633;DHT22;11483;55.828;37.488;2022-08-21T13:02:24;27.30;50.00
22633;DHT22;11483;55.828;37.488;2022-08-21T13:04:50;27.40;50.10
22633;DHT22;11483;55.828;37.488;2022-08-21T13:07:29;27.50;50.00
22633;DHT22;11483;55.828;37.488;2022-08-21T13:10:05;27.70;49.70
22633;DHT22;11483;55.828;37.488;2022-08-21T13:12:33;27.60;49.60
22633;DHT22;11483;55.828;37.488;2022-08-21T13:15:03;27.60;49.80
22633;DHT22;11483;55.828;37.488;2022-08-21T13:17:32;27.30;49.70
22633;DHT22;11483;55.828;37.488;2022-08-21T13:20:06;27.30;49.90
22633;DHT22;11483;55.828;37.488;2022-08-21T13:22:41;27.10;50.70
22633;DHT22;11483;55.828;37.488;2022-08-21T13:25:12;27.10;50.60
22633;DHT22;11483;55.828;37.488;2022-08-21T13:27:39;27.10;50.60
22633;DHT22;11483;55.828;37.488;2022-08-21T13:30:17;27.00;50.80
22633;DHT22;11483;55.828;37.488;2022-08-21T13:32:47;26.90;50.50
22633;DHT22;11483;55.828;37.488;2022-08-21T13:35:21;27.00;51.00
22633;DHT22;11483;55.828;37.488;2022-08-21T13:37:49;27.00;50.50
22633;DHT22;11483;55.828;37.488;2022-08-21T13:40:26;27.00;50.50
22633;DHT22;11483;55.828;37.488;2022-08-21T13:42:54;27.10;50.80
22633;DHT22;11483;55.828;37.488;2022-08-21T13:45:27;27.10;50.90
22633;DHT22;11483;55.828;37.488;2022-08-21T13:47:57;27.20;50.30
22633;DHT22;11483;55.828;37.488;2022-08-21T13:50:25;27.20;50.40
22633;DHT22;11483;55.828;37.488;2022-08-21T13:53:02;27.10;50.00
22633;DHT22;11483;55.828;37.488;2022-08-21T13:55:43;27.00;50.00
22633;DHT22;11483;55.828;37.488;2022-08-21T13:58:10;26.80;50.30
22633;DHT22;11483;55.828;37.488;2022-08-21T14:00:51;26.70;50.50
22633;DHT22;11483;55.828;37.488;2022-08-21T14:03:30;26.90;50.70
22633;DHT22;11483;55.828;37.488;2022-08-21T14:05:57;27.10;50.50
22633;DHT22;11483;55.828;37.488;2022-08-21T14:08:41;27.00;50.70
22633;DHT22;11483;55.828;37.488;2022-08-21T14:11:11;27.20;50.70
22633;DHT22;11483;55.828;37.488;2022-08-21T14:13:48;27.60;50.60
22633;DHT22;11483;55.828;37.488;2022-08-21T14:16:21;28.00;50.20
22633;DHT22;11483;55.828;37.488;2022-08-21T14:18:54;28.50;49.50
22633;DHT22;11483;55.828;37.488;2022-08-21T14:21:35;29.20;50.10
22633;DHT22;11483;55.828;37.488;2022-08-21T14:24:09;29.80;48.00
22633;DHT22;11483;55.828;37.488;2022-08-21T14:26:48;29.60;48.00
22633;DHT22;11483;55.828;37.488;2022-08-21T14:29:16;29.30;47.90
22633;DHT22;11483;55.828;37.488;2022-08-21T14:31:48;29.00;48.50
22633;DHT22;11483;55.828;37.488;2022-08-21T14:34:14;28.70;48.90
22633;DHT22;11483;55.828;37.488;2022-08-21T14:36:43;28.60;48.80
22633;DHT22;11483;55.828;37.488;2022-08-21T14:39:09;28.10;49.60
22633;DHT22;11483;55.828;37.488;2022-08-21T14:41:36;27.80;49.80
22633;DHT22;11483;55.828;37.488;2022-08-21T14:44:02;27.70;50.20
22633;DHT22;11483;55.828;37.488;2022-08-21T14:46:30;27.60;50.30
22633;DHT22;11483;55.828;37.488;2022-08-21T14:48:58;27.60;50.90
22633;DHT22;11483;55.828;37.488;2022-08-21T14:51:24;27.50;50.50
22633;DHT22;11483;55.828;37.488;2022-08-21T14:53:49;27.20;50.40
22633;DHT22;11483;55.828;37.488;2022-08-21T14:56:16;27.10;50.80
22633;DHT22;11483;55.828;37.488;2022-08-21T14:58:45;27.00;50.90
22633;DHT22;11483;55.828;37.488;2022-08-21T15:01:13;26.80;51.10
22633;DHT22;11483;55.828;37.488;2022-08-21T15:03:40;26.80;51.40
22633;DHT22;11483;55.828;37.488;2022-08-21T15:06:10;26.70;51.60
22633;DHT22;11483;55.828;37.488;2022-08-21T15:08:36;26.60;51.60
22633;DHT22;11483;55.828;37.488;2022-08-21T15:11:03;26.50;51.60
22633;DHT22;11483;55.828;37.488;2022-08-21T15:13:30;26.50;51.70
22633;DHT22;11483;55.828;37.488;2022-08-21T15:15:56;26.40;51.70
22633;DHT22;11483;55.828;37.488;2022-08-21T15:18:24;26.30;52.10
22633;DHT22;11483;55.828;37.488;2022-08-21T15:20:51;26.30;52.30
22633;DHT22;11483;55.828;37.488;2022-08-21T15:23:18;26.30;52.10
22633;DHT22;11483;55.828;37.488;2022-08-21T15:25:47;26.30;52.20
22633;DHT22;11483;55.828;37.488;2022-08-21T15:28:14;26.30;51.90
22633;DHT22;11483;55.828;37.488;2022-08-21T15:30:41;26.30;51.60
22633;DHT22;11483;55.828;37.488;2022-08-21T15:33:08;26.30;51.70
22633;DHT22;11483;55.828;37.488;2022-08-21T15:35:35;26.30;51.70
22633;DHT22;11483;55.828;37.488;2022-08-21T15:38:01;26.40;52.00
22633;DHT22;11483;55.828;37.488;2022-08-21T15:40:28;26.50;51.90
22633;DHT22;11483;55.828;37.488;2022-08-21T15:42:58;26.60;52.00
22633;DHT22;11483;55.828;37.488;2022-08-21T15:45:25;26.70;52.00
22633;DHT22;11483;55.828;37.488;2022-08-21T15:47:52;26.70;52.20
22633;DHT22;11483;55.828;37.488;2022-08-21T15:50:19;26.60;52.30
22633;DHT22;11483;55.828;37.488;2022-08-21T15:52:45;26.30;52.60
22633;DHT22;11483;55.828;37.488;2022-08-21T15:55:12;26.30;53.00
22633;DHT22;11483;55.828;37.488;2022-08-21T15:57:43;26.20;53.40
22633;DHT22;11483;55.828;37.488;2022-08-21T16:00:14;26.10;53.30
22633;DHT22;11483;55.828;37.488;2022-08-21T16:02:43;26.00;53.60
22633;DHT22;11483;55.828;37.488;2022-08-21T16:05:10;25.80;54.50
22633;DHT22;11483;55.828;37.488;2022-08-21T16:07:38;25.90;54.00
22633;DHT22;11483;55.828;37.488;2022-08-21T16:10:08;25.80;54.10
22633;DHT22;11483;55.828;37.488;2022-08-21T16:12:37;25.80;54.30
22633;DHT22;11483;55.828;37.488;2022-08-21T16:15:07;25.80;54.50
22633;DHT22;11483;55.828;37.488;2022-08-21T16:17:35;25.70;54.60
22633;DHT22;11483;55.828;37.488;2022-08-21T16:20:04;25.60;54.60
22633;DHT22;11483;55.828;37.488;2022-08-21T16:22:31;25.50;54.70
22633;DHT22;11483;55.828;37.488;2022-08-21T16:24:57;25.50;54.80
22633;DHT22;11483;55.828;37.488;2022-08-21T16:27:23;25.50;54.90
22633;DHT22;11483;55.828;37.488;2022-08-21T16:29:49;25.50;55.00
22633;DHT22;11483;55.828;37.488;2022-08-21T16:32:15;25.50;55.10
22633;DHT22;11483;55.828;37.488;2022-08-21T16:34:44;25.50;55.00